Time;durP1;ratioP1;P1;durP2;ratioP2;P2;SDS_P1;SDS_P2;PMS_P1;PMS_P2;Temp;Humidity;BMP_temperature;BMP_pressure;BME280_temperature;BME280_humidity;BME280_pressure;Samples;Min_cycle;Max_cycle;Signal;HPM_P1;HPM_P2
2023/10/13 00:02:01;;;;;;;1999.90;999.90;;;19.30;99.90;;;;;;5115042;28;20341;-70
2023/10/13 00:04:28;;;;;;;1999.90;999.90;;;19.40;99.90;;;;;;5115174;28;20451;-70
2023/10/13 00:06:56;;;;;;;1999.90;999.90;;;19.30;99.90;;;;;;5114995;28;20391;-70
2023/10/13 00:09:32;;;;;;;1999.90;999.90;;;19.30;99.90;;;;;;5114723;28;20971;-71
2023/10/13 00:12:01;;;;;;;1999.90;999.90;;;19.40;99.90;;;;;;5114796;28;20564;-71
2023/10/13 00:14:33;;;;;;;1999.90;999.90;;;19.40;99.90;;;;;;5114952;28;20454;-70
2023/10/13 00:17:03;;;;;;;1999.90;999.90;;;19.40;99.90;;;;;;5114938;28;20417;-70
2023/10/13 00:19:45;;;;;;;1999.90;999.90;;;19.40;99.90;;;;;;5114620;28;20403;-70
2023/10/13 00:22:12;;;;;;;1999.90;999.90;;;19.40;99.90;;;;;;5114663;28;20458;-70
2023/10/13 00:24:42;;;;;;;1999.90;999.90;;;19.40;99.90;;;;;;5114575;28;20497;-70
2023/10/13 00:27:36;;;;;;;1999.90;999.90;;;19.40;99.90;;;;;;5114648;28;20367;-71
2023/10/13 00:32:51;;;;;;;1999.90;999.90;;;19.30;99.90;;;;;;5114798;28;20401;-71
2023/10/13 00:35:29;;;;;;;1999.90;999.90;;;19.30;99.90;;;;;;5114479;28;20455;-71
2023/10/13 00:38:03;;;;;;;1999.90;999.90;;;19.20;99.90;;;;;;5114316;28;20404;-71
2023/10/13 00:43:28;;;;;;;1999.90;999.90;;;19.10;99.90;;;;;;5114287;28;20927;-71
2023/10/13 00:48:33;;;;;;;1999.90;999.90;;;19.00;99.90;;;;;;5113566;28;20405;-71
2023/10/13 00:51:06;;;;;;;1999.90;999.90;;;18.90;99.90;;;;;;5114153;28;20419;-71
2023/10/13 00:53:39;;;;;;;1999.90;999.90;;;18.80;99.90;;;;;;5114389;28;20466;-71
2023/10/13 00:56:07;;;;;;;1999.90;999.90;;;18.80;99.90;;;;;;5114241;28;20448;-71
2023/10/13 00:58:33;;;;;;;1999.90;999.90;;;18.70;99.90;;;;;;5113108;28;20411;-71
2023/10/13 01:01:18;;;;;;;1999.90;999.90;;;18.70;99.90;;;;;;5113899;28;20513;-71
2023/10/13 01:04:02;;;;;;;1999.90;999.90;;;18.70;99.90;;;;;;5113860;28;20484;-71
2023/10/13 01:06:29;;;;;;;1999.90;999.90;;;18.70;99.90;;;;;;5113826;28;20392;-71
2023/10/13 01:11:44;;;;;;;1999.90;999.90;;;18.70;99.90;;;;;;5113703;28;20443;-71
2023/10/13 01:14:18;;;;;;;1999.90;999.90;;;18.70;99.90;;;;;;5113818;28;20424;-71
2023/10/13 01:16:44;;;;;;;1999.90;999.90;;;18.70;99.90;;;;;;5113769;28;20425;-71
2023/10/13 01:19:13;;;;;;;1999.90;999.90;;;18.70;99.90;;;;;;5113519;28;20421;-70
2023/10/13 01:21:44;;;;;;;1999.90;999.90;;;18.70;99.90;;;;;;5113475;28;20956;-71
2023/10/13 01:24:13;;;;;;;1999.90;999.90;;;18.70;99.90;;;;;;5113467;28;20450;-70
2023/10/13 01:26:40;;;;;;;1999.90;999.90;;;18.60;99.90;;;;;;5113369;28;20402;-71
2023/10/13 01:29:14;;;;;;;1999.90;999.90;;;18.60;99.90;;;;;;5113483;28;20499;-71
2023/10/13 01:31:46;;;;;;;1999.90;999.90;;;18.60;99.90;;;;;;5113480;28;20795;-71
2023/10/13 01:34:21;;;;;;;1999.90;999.90;;;18.60;99.90;;;;;;5113353;28;20487;-70
2023/10/13 01:36:50;;;;;;;1999.90;999.90;;;18.60;99.90;;;;;;5113098;28;20409;-71
2023/10/13 01:39:21;;;;;;;1999.90;999.90;;;18.60;99.90;;;;;;5113308;28;20411;-71
2023/10/13 01:41:55;;;;;;;1999.90;999.90;;;18.60;99.90;;;;;;5113336;28;20479;-70
2023/10/13 01:44:21;;;;;;;1999.90;999.90;;;18.60;99.90;;;;;;5113262;28;20517;-71
2023/10/13 01:46:47;;;;;;;1999.90;999.90;;;18.60;99.90;;;;;;5113040;28;20398;-71
2023/10/13 01:49:15;;;;;;;1999.90;999.90;;;18.60;99.90;;;;;;5112854;28;20945;-70
2023/10/13 01:51:41;;;;;;;1999.90;999.90;;;18.60;99.90;;;;;;5112841;28;20519;-71
2023/10/13 01:54:11;;;;;;;1999.90;999.90;;;18.50;99.90;;;;;;5113053;28;20546;-71
2023/10/13 01:56:42;;;;;;;1999.90;999.90;;;18.50;99.90;;;;;;5113050;28;20398;-71
2023/10/13 01:59:09;;;;;;;1999.90;999.90;;;18.50;99.90;;;;;;5112794;28;20416;-71
2023/10/13 02:01:35;;;;;;;1999.90;999.90;;;18.40;99.90;;;;;;5112842;28;20800;-71
2023/10/13 02:04:06;;;;;;;1999.90;999.90;;;18.40;99.90;;;;;;5112670;28;20441;-71
2023/10/13 02:06:36;;;;;;;1999.90;999.90;;;18.50;99.90;;;;;;5112913;28;20431;-71
2023/10/13 02:09:13;;;;;;;1999.90;999.90;;;18.40;99.90;;;;;;5111848;28;20409;-71
2023/10/13 02:11:46;;;;;;;1999.90;999.90;;;18.50;99.90;;;;;;5112534;28;20504;-71
2023/10/13 02:14:16;;;;;;;1999.90;999.90;;;18.40;99.90;;;;;;5112684;28;20400;-71
2023/10/13 02:16:42;;;;;;;1999.90;999.90;;;18.50;99.90;;;;;;5112775;28;20408;-71
2023/10/13 02:19:08;;;;;;;1999.90;999.90;;;18.50;99.90;;;;;;5112339;28;20439;-71
2023/10/13 02:21:44;;;;;;;1999.90;999.90;;;18.50;99.90;;;;;;5112536;28;20858;-71
2023/10/13 02:24:17;;;;;;;1999.90;999.90;;;18.40;99.90;;;;;;5112548;28;20922;-71
2023/10/13 02:26:44;;;;;;;1999.90;999.90;;;18.50;99.90;;;;;;5112479;28;20406;-71
2023/10/13 02:29:12;;;;;;;1999.90;999.90;;;18.50;99.90;;;;;;5112202;28;20948;-71
2023/10/13 02:31:40;;;;;;;1999.90;999.90;;;18.40;99.90;;;;;;5112491;28;20859;-71
2023/10/13 02:34:09;;;;;;;1999.90;999.90;;;18.40;99.90;;;;;;5112342;28;20456;-71
2023/10/13 02:39:36;;;;;;;1999.90;999.90;;;18.40;99.90;;;;;;5102890;28;20949;-70
2023/10/13 02:42:06;;;;;;;1999.90;999.90;;;18.40;99.90;;;;;;5112418;28;20430;-71
2023/10/13 02:44:33;;;;;;;1999.90;999.90;;;18.40;99.90;;;;;;5112395;28;20583;-71
2023/10/13 02:46:59;;;;;;;1999.90;999.90;;;18.40;99.90;;;;;;5112149;28;20431;-70
2023/10/13 02:49:34;;;;;;;1999.90;999.90;;;18.40;99.90;;;;;;5112011;28;20445;-71
2023/10/13 02:52:05;;;;;;;1999.90;999.90;;;18.40;99.90;;;;;;5112205;28;20188;-70
2023/10/13 02:54:31;;;;;;;1999.90;999.90;;;18.40;99.90;;;;;;5112249;28;20395;-71
2023/10/13 02:56:57;;;;;;;1999.90;999.90;;;18.40;99.90;;;;;;5112015;28;20463;-71
2023/10/13 02:59:50;;;;;;;1999.90;999.90;;;18.40;99.90;;;;;;5111921;28;20260;-71
2023/10/13 03:02:27;;;;;;;1999.90;999.90;;;18.30;99.90;;;;;;5111932;28;20794;-71
2023/10/13 03:05:10;;;;;;;1999.90;999.90;;;18.30;99.90;;;;;;5112239;28;20449;-70
2023/10/13 03:07:36;;;;;;;1999.90;999.90;;;18.30;99.90;;;;;;5112095;28;20405;-70
2023/10/13 03:10:10;;;;;;;1999.90;999.90;;;18.30;99.90;;;;;;5111895;28;20396;-70
2023/10/13 03:12:40;;;;;;;1999.90;999.90;;;18.30;99.90;;;;;;5111933;28;20416;-70
2023/10/13 03:15:20;;;;;;;1999.90;999.90;;;18.30;99.90;;;;;;5111962;28;20427;-71
2023/10/13 03:17:46;;;;;;;1999.90;999.90;;;18.30;99.90;;;;;;5111764;28;20905;-71
2023/10/13 03:20:15;;;;;;;1999.90;999.90;;;18.40;99.90;;;;;;5112063;28;20400;-71
2023/10/13 03:22:45;;;;;;;1999.90;999.90;;;18.30;99.90;;;;;;5115825;28;20473;-71
2023/10/13 03:25:17;;;;;;;1999.90;999.90;;;18.30;99.90;;;;;;5115812;28;20448;-71
2023/10/13 03:30:20;;;;;;;1999.90;999.90;;;18.30;99.90;;;;;;5116132;28;20396;-71
2023/10/13 03:32:48;;;;;;;1999.90;999.90;;;18.30;99.90;;;;;;5115677;28;20485;-71
2023/10/13 03:35:24;;;;;;;1999.90;999.90;;;18.30;99.90;;;;;;5115747;28;20404;-71
2023/10/13 03:37:53;;;;;;;1999.90;999.90;;;18.30;99.90;;;;;;5115397;28;20399;-71
2023/10/13 03:45:24;;;;;;;1999.90;999.90;;;18.40;99.90;;;;;;5115557;28;20898;-70
2023/10/13 03:47:53;;;;;;;1999.90;999.90;;;18.40;99.90;;;;;;5115367;28;20392;-71
2023/10/13 03:50:32;;;;;;;1999.90;999.90;;;18.40;99.90;;;;;;5115392;28;20492;-70
2023/10/13 03:52:57;;;;;;;1999.90;999.90;;;18.30;99.90;;;;;;5115421;28;20400;-71
2023/10/13 03:55:26;;;;;;;1999.90;999.90;;;18.30;99.90;;;;;;5115358;28;20888;-71
2023/10/13 03:57:53;;;;;;;1999.90;999.90;;;18.30;99.90;;;;;;5115039;28;20660;-71
2023/10/13 04:00:25;;;;;;;1999.90;999.90;;;18.30;99.90;;;;;;5115258;28;20412;-70
2023/10/13 04:03:09;;;;;;;1999.90;999.90;;;18.30;99.90;;;;;;5115093;28;20427;-71
2023/10/13 04:05:45;;;;;;;1999.90;999.90;;;18.40;99.90;;;;;;5115145;28;20402;-71
2023/10/13 04:19:07;;;;;;;1999.90;999.90;;;18.50;99.90;;;;;;5114800;28;20412;-71
2023/10/13 04:22:20;;;;;;;1999.90;999.90;;;18.50;99.90;;;;;;5114824;28;20434;-71
2023/10/13 04:32:14;;;;;;;1999.90;999.90;;;18.70;99.90;;;;;;5113871;28;20423;-71
2023/10/13 04:34:45;;;;;;;1999.90;999.90;;;18.70;99.90;;;;;;5114595;28;20409;-71
2023/10/13 04:37:33;;;;;;;1999.90;999.90;;;18.70;99.90;;;;;;5114701;28;20404;-71
2023/10/13 04:40:24;;;;;;;1999.90;999.90;;;18.70;99.90;;;;;;5114344;28;20493;-71
2023/10/13 04:42:50;;;;;;;1999.90;999.90;;;18.70;99.90;;;;;;5114129;28;20910;-71
2023/10/13 04:48:13;;;;;;;1999.90;999.90;;;18.70;99.90;;;;;;5114119;28;20397;-71
2023/10/13 04:50:45;;;;;;;1999.90;999.90;;;18.80;99.90;;;;;;5114206;28;20376;-71
2023/10/13 04:54:00;;;;;;;1999.90;999.90;;;18.90;99.90;;;;;;5114454;28;20401;-71
2023/10/13 05:01:49;;;;;;;1999.90;999.90;;;19.10;99.90;;;;;;5113979;28;20190;-70
2023/10/13 05:05:11;;;;;;;1999.90;999.90;;;19.20;99.90;;;;;;5113742;28;20462;-70
2023/10/13 06:28:42;;;;;;;1999.90;999.90;;;19.70;99.90;;;;;;5112348;28;20401;-70
2023/10/13 06:31:12;;;;;;;1999.90;999.90;;;19.70;99.90;;;;;;5112471;28;20431;-71
2023/10/13 06:33:44;;;;;;;1999.90;999.90;;;19.60;99.90;;;;;;5112582;28;20412;-71
2023/10/13 06:36:10;;;;;;;1999.90;999.90;;;19.50;99.90;;;;;;5112446;28;20408;-71
2023/10/13 06:38:37;;;;;;;1999.90;999.90;;;19.50;99.90;;;;;;5112200;28;20405;-71
2023/10/13 06:41:06;;;;;;;1999.90;999.90;;;19.40;99.90;;;;;;5112325;28;20190;-70
2023/10/13 06:43:45;;;;;;;1999.90;999.90;;;19.40;99.90;;;;;;5112407;28;20455;-71
2023/10/13 06:46:23;;;;;;;1999.90;999.90;;;19.40;99.90;;;;;;5112337;28;20413;-71
2023/10/13 06:48:53;;;;;;;1999.90;999.90;;;19.30;99.90;;;;;;5112371;28;20406;-70
2023/10/13 06:51:22;;;;;;;1999.90;999.90;;;19.30;99.90;;;;;;5112272;28;20465;-71
2023/10/13 06:53:49;;;;;;;1999.90;999.90;;;19.40;99.90;;;;;;5112364;28;20403;-71
2023/10/13 06:56:22;;;;;;;1999.90;999.90;;;19.40;99.90;;;;;;5101156;28;20450;-70
2023/10/13 06:58:48;;;;;;;1999.90;999.90;;;19.40;99.90;;;;;;5095937;28;20404;-71
2023/10/13 07:01:21;;;;;;;1999.90;999.90;;;19.30;99.90;;;;;;5091525;28;20442;-71
2023/10/13 07:03:53;;;;;;;1999.90;999.90;;;19.30;99.90;;;;;;5109855;28;20456;-71
2023/10/13 07:06:22;;;;;;;1999.90;999.90;;;19.30;99.90;;;;;;5104918;28;20951;-69
2023/10/13 07:08:51;;;;;;;1999.90;999.90;;;19.20;99.90;;;;;;5102304;28;20434;-71
2023/10/13 07:11:32;;;;;;;1999.90;999.90;;;19.30;99.90;;;;;;5096824;28;20836;-71
2023/10/13 07:14:09;;;;;;;1999.90;999.90;;;19.40;99.90;;;;;;5107825;28;20929;-71
2023/10/13 07:16:46;;;;;;;1999.90;999.90;;;19.40;99.90;;;;;;5101681;28;20401;-70
2023/10/13 07:19:16;;;;;;;1999.90;999.90;;;19.60;99.90;;;;;;5116031;28;20397;-70
2023/10/13 07:21:45;;;;;;;1999.90;999.90;;;19.70;99.90;;;;;;5110401;28;20419;-70
2023/10/13 07:24:15;;;;;;;1999.90;999.90;;;19.80;99.90;;;;;;5107485;28;20509;-70
2023/10/13 07:26:45;;;;;;;1999.90;999.90;;;20.00;99.90;;;;;;5115930;28;20408;-70
2023/10/13 07:29:11;;;;;;;1999.90;999.90;;;20.10;99.90;;;;;;5115587;28;20436;-70
2023/10/13 07:31:41;;;;;;;1999.90;999.90;;;20.10;99.90;;;;;;5110035;28;20973;-70
2023/10/13 07:34:22;;;;;;;1999.90;999.90;;;20.30;99.90;;;;;;5107462;28;20415;-70
2023/10/13 07:36:49;;;;;;;1999.90;999.90;;;20.30;99.90;;;;;;5115909;28;20785;-71
2023/10/13 07:39:21;;;;;;;1999.90;999.90;;;20.50;99.90;;;;;;5115613;28;20857;-70
2023/10/13 07:41:54;;;;;;;1999.90;999.90;;;20.50;99.90;;;;;;5115761;28;20491;-70
2023/10/13 07:44:24;;;;;;;1999.90;999.90;;;20.50;99.90;;;;;;5115831;28;20824;-70
2023/10/13 07:46:58;;;;;;;1999.90;999.90;;;20.60;99.90;;;;;;5115764;28;20905;-70
2023/10/13 07:49:30;;;;;;;1999.90;999.90;;;20.60;99.90;;;;;;5115314;28;20991;-70
2023/10/13 07:52:00;;;;;;;1999.90;999.90;;;20.70;99.90;;;;;;5109320;28;20516;-70
2023/10/13 07:54:26;;;;;;;1999.90;999.90;;;20.80;99.90;;;;;;5106970;28;20408;-71
2023/10/13 07:56:54;;;;;;;1999.90;999.90;;;20.90;99.90;;;;;;5113330;28;20408;-71
2023/10/13 07:59:22;;;;;;;1999.90;999.90;;;20.90;99.90;;;;;;5114504;28;20372;-70
2023/10/13 08:01:56;;;;;;;1999.90;999.90;;;21.00;99.90;;;;;;5114968;28;20924;-71
2023/10/13 08:04:28;;;;;;;1999.90;999.90;;;21.10;99.90;;;;;;5114771;28;20454;-70
2023/10/13 08:07:02;;;;;;;1999.90;999.90;;;21.10;99.90;;;;;;5114688;28;20432;-70
2023/10/13 08:09:40;;;;;;;1999.90;999.90;;;21.20;99.90;;;;;;5114643;28;20396;-71
2023/10/13 08:12:10;;;;;;;1999.90;999.90;;;21.30;99.90;;;;;;5114635;28;20475;-70
2023/10/13 08:14:38;;;;;;;1999.90;999.90;;;21.30;99.90;;;;;;5114897;28;20433;-71
2023/10/13 08:17:12;;;;;;;1999.90;999.90;;;21.40;99.90;;;;;;5114283;28;20438;-70
2023/10/13 08:19:44;;;;;;;1999.90;999.90;;;21.40;99.90;;;;;;5114389;28;20444;-71
2023/10/13 08:22:23;;;;;;;1999.90;999.90;;;21.50;99.90;;;;;;5114693;28;20419;-71
2023/10/13 08:40:32;;;;;;;1999.90;999.90;;;22.00;99.90;;;;;;5102403;28;20475;-70
2023/10/13 08:45:20;;;;;;;1999.90;999.90;;;22.10;99.90;;;;;;5108973;28;20532;-71
2023/10/13 08:48:07;;;;;;;1999.90;999.90;;;22.10;99.90;;;;;;5109237;28;20418;-71
2023/10/13 08:56:17;;;;;;;1999.90;999.90;;;22.20;99.90;;;;;;5088277;28;20433;-71
2023/10/13 09:06:49;;;;;;;1999.90;999.90;;;22.70;99.90;;;;;;5097308;28;20429;-70
2023/10/13 09:09:27;;;;;;;1999.90;999.90;;;22.80;99.90;;;;;;5106244;28;20775;-70
2023/10/13 09:12:08;;;;;;;1999.90;999.90;;;22.90;99.90;;;;;;5108661;28;20521;-70
2023/10/13 09:14:37;;;;;;;1999.90;999.90;;;23.00;99.90;;;;;;5108889;28;20422;-70
2023/10/13 09:17:12;;;;;;;1999.90;999.90;;;23.00;99.90;;;;;;5108824;28;20866;-70
2023/10/13 09:19:58;;;;;;;1999.90;999.90;;;23.00;99.90;;;;;;5108053;28;20426;-70
2023/10/13 09:22:35;;;;;;;1999.90;999.90;;;22.90;99.90;;;;;;5108776;28;20523;-70
2023/10/13 09:25:02;;;;;;;1999.90;999.90;;;23.00;99.90;;;;;;5107449;28;20461;-70
2023/10/13 09:27:32;;;;;;;1999.90;999.90;;;23.10;99.90;;;;;;5095897;28;20532;-71
2023/10/13 09:30:23;;;;;;;1999.90;999.90;;;23.10;99.90;;;;;;5092681;28;20519;-71
2023/10/13 09:33:04;;;;;;;1999.90;999.90;;;23.10;99.90;;;;;;5093033;28;20975;-72
2023/10/13 09:35:34;;;;;;;1999.90;999.90;;;23.10;99.90;;;;;;5107440;28;20409;-69
2023/10/13 09:38:02;;;;;;;1999.90;999.90;;;23.00;99.90;;;;;;5100905;28;20761;-69
2023/10/13 09:40:38;;;;;;;1999.90;999.90;;;23.10;99.90;;;;;;5099888;28;20988;-69
2023/10/13 09:43:07;;;;;;;1999.90;999.90;;;23.00;99.90;;;;;;5090149;28;20423;-71
2023/10/13 09:45:38;;;;;;;1999.90;999.90;;;23.00;99.90;;;;;;5088703;28;20436;-71
2023/10/13 09:48:21;;;;;;;1999.90;999.90;;;23.10;99.90;;;;;;5088099;28;20426;-72
2023/10/13 09:50:48;;;;;;;1999.90;999.90;;;23.20;99.90;;;;;;5088783;28;20439;-72
2023/10/13 09:53:17;;;;;;;1999.90;999.90;;;23.30;99.90;;;;;;5087663;28;20476;-71
2023/10/13 09:56:14;;;;;;;1999.90;999.90;;;23.40;99.90;;;;;;5087610;28;20454;-72
2023/10/13 09:59:08;;;;;;;1999.90;999.90;;;23.50;99.90;;;;;;5088409;28;20432;-70
2023/10/13 10:01:40;;;;;;;1999.90;999.90;;;23.50;99.90;;;;;;5095512;28;20411;-70
2023/10/13 10:04:18;;;;;;;1999.90;999.90;;;23.50;99.90;;;;;;5095353;28;20538;-69
2023/10/13 10:06:53;;;;;;;1999.90;999.90;;;23.60;99.90;;;;;;5107850;28;20529;-69
2023/10/13 10:09:22;;;;;;;1999.90;999.90;;;23.80;99.90;;;;;;5107694;28;20417;-68
2023/10/13 10:12:21;;;;;;;1999.90;999.90;;;23.80;99.90;;;;;;5108616;28;20450;-68
2023/10/13 10:15:06;;;;;;;1999.90;999.90;;;23.90;99.90;;;;;;5108462;28;20419;-68
2023/10/13 10:17:42;;;;;;;1999.90;999.90;;;24.00;99.90;;;;;;5108457;28;20907;-68
2023/10/13 10:20:19;;;;;;;1999.90;999.90;;;24.10;99.90;;;;;;5107705;28;20411;-69
2023/10/13 10:22:59;;;;;;;1999.90;999.90;;;24.20;99.90;;;;;;5108062;28;20401;-69
2023/10/13 10:25:35;;;;;;;1999.90;999.90;;;24.30;99.90;;;;;;5107699;28;20507;-72
2023/10/13 10:28:07;;;;;;;1999.90;999.90;;;24.40;99.90;;;;;;5107590;28;20473;-69
2023/10/13 10:30:38;;;;;;;1999.90;999.90;;;24.50;99.90;;;;;;5107320;28;20895;-68
2023/10/13 10:33:12;;;;;;;1999.90;999.90;;;24.70;99.90;;;;;;5107868;28;20506;-71
2023/10/13 10:35:40;;;;;;;1999.90;999.90;;;24.80;99.90;;;;;;5107391;28;20412;-68
2023/10/13 10:38:24;;;;;;;1999.90;999.90;;;25.10;99.50;;;;;;5107021;28;20498;-69
2023/10/13 10:40:58;;;;;;;1999.90;999.90;;;25.20;96.30;;;;;;5106718;28;21312;-69
2023/10/13 10:43:45;;;;;;;1999.90;999.90;;;25.40;96.20;;;;;;5107007;28;20407;-68
2023/10/13 10:46:18;;;;;;;1999.90;999.90;;;25.60;94.50;;;;;;5107663;28;20446;-69
2023/10/13 10:48:47;;;;;;;1999.90;999.90;;;25.70;91.30;;;;;;5107569;28;21105;-68
2023/10/13 10:53:44;;;;;;;1999.90;999.90;;;25.80;84.90;;;;;;5106553;28;21008;-71
2023/10/13 10:56:20;;;;;;;1999.90;999.90;;;25.90;82.20;;;;;;5107318;28;20401;-69
2023/10/13 10:58:54;;;;;;;1999.90;999.90;;;26.00;82.80;;;;;;5107972;28;20476;-69
2023/10/13 11:01:25;;;;;;;1999.90;999.90;;;26.20;79.80;;;;;;5107589;28;20413;-68
2023/10/13 11:03:57;;;;;;;1999.90;999.90;;;26.30;70.80;;;;;;5107692;28;20940;-68
2023/10/13 11:06:24;;;;;;;1999.90;999.90;;;26.30;66.20;;;;;;5107572;28;20471;-68
2023/10/13 11:09:00;;;;;;;1999.90;999.90;;;26.20;69.60;;;;;;5107493;28;20389;-70
2023/10/13 11:11:35;;;;;;;1999.90;999.90;;;26.10;68.20;;;;;;5108062;28;20433;-70
2023/10/13 11:14:14;;;;;;;1999.90;999.90;;;26.00;66.40;;;;;;5108143;28;20764;-71
2023/10/13 11:16:53;;;;;;;1999.90;999.90;;;25.90;68.10;;;;;;5107734;28;20393;-72
2023/10/13 11:19:27;;;;;;;1999.90;999.90;;;25.80;64.60;;;;;;5107576;28;20415;-70
2023/10/13 11:21:54;;;;;;;1999.90;999.90;;;25.80;66.80;;;;;;5107351;28;20435;-70
2023/10/13 11:24:21;;;;;;;1999.90;999.90;;;25.80;67.80;;;;;;5108086;28;20863;-70
2023/10/13 11:26:49;;;;;;;1999.90;999.90;;;25.80;69.90;;;;;;5107549;28;20944;-69
2023/10/13 11:29:19;;;;;;;1999.90;999.90;;;25.70;68.70;;;;;;5106947;28;20471;-70
2023/10/13 11:31:58;;;;;;;1999.90;999.90;;;25.70;68.20;;;;;;5108039;28;20451;-70
2023/10/13 11:34:24;;;;;;;1999.90;999.90;;;25.60;66.40;;;;;;5107960;28;20504;-70
2023/10/13 11:36:50;;;;;;;1999.90;999.90;;;25.60;69.20;;;;;;5107112;28;20386;-70
2023/10/13 11:39:24;;;;;;;1999.90;999.90;;;25.50;66.80;;;;;;5107099;28;20497;-70
2023/10/13 11:41:56;;;;;;;1999.90;999.90;;;25.50;65.60;;;;;;5108061;28;20201;-70
2023/10/13 11:51:49;;;;;;;1999.90;999.90;;;25.30;65.30;;;;;;5102292;28;20182;-70
2023/10/13 11:54:17;;;;;;;1999.90;999.90;;;25.20;66.50;;;;;;5090819;28;20655;-70
2023/10/13 11:56:46;;;;;;;1999.90;999.90;;;25.20;65.40;;;;;;5102367;28;20815;-70
2023/10/13 11:59:18;;;;;;;1999.90;999.90;;;25.20;63.40;;;;;;5110089;28;20425;-70
2023/10/13 12:12:22;;;;;;;1999.90;999.90;;;25.10;65.90;;;;;;5110403;28;20950;-70
2023/10/13 12:14:58;;;;;;;1999.90;999.90;;;25.00;66.40;;;;;;5110383;28;20396;-70
2023/10/13 12:17:27;;;;;;;1999.90;999.90;;;24.90;65.10;;;;;;5110457;28;20382;-70
2023/10/13 12:19:54;;;;;;;1999.90;999.90;;;25.00;65.40;;;;;;5110321;28;20415;-70
2023/10/13 12:22:35;;;;;;;1999.90;999.90;;;25.00;65.60;;;;;;5110622;28;20430;-70
2023/10/13 12:25:05;;;;;;;1999.90;999.90;;;24.90;63.70;;;;;;5111044;28;20455;-70
2023/10/13 12:27:45;;;;;;;1999.90;999.90;;;24.90;61.10;;;;;;5110259;28;20426;-70
2023/10/13 12:30:13;;;;;;;1999.90;999.90;;;25.00;60.90;;;;;;5110824;28;20418;-70
2023/10/13 12:32:44;;;;;;;1999.90;999.90;;;25.10;59.00;;;;;;5110101;28;20405;-70
2023/10/13 12:51:19;;;;;;;1999.90;999.90;;;25.20;54.60;;;;;;5110317;28;20476;-70
2023/10/13 12:53:51;;;;;;;1999.90;999.90;;;25.20;53.30;;;;;;5109720;28;20415;-70
2023/10/13 12:56:17;;;;;;;1999.90;999.90;;;25.30;50.50;;;;;;5109738;28;20866;-70
2023/10/13 12:58:53;;;;;;;1999.90;999.90;;;25.40;49.50;;;;;;5109458;28;20502;-70
2023/10/13 13:01:24;;;;;;;1999.90;999.90;;;25.40;49.20;;;;;;5109388;28;20402;-70
2023/10/13 13:03:50;;;;;;;1999.90;999.90;;;25.30;48.30;;;;;;5109516;28;20434;-70
2023/10/13 13:06:17;;;;;;;1999.90;999.90;;;25.30;47.10;;;;;;5110129;28;20976;-70
2023/10/13 13:08:44;;;;;;;1999.90;999.90;;;25.30;46.30;;;;;;5109128;28;20412;-70
2023/10/13 13:11:11;;;;;;;1999.90;999.90;;;25.20;46.60;;;;;;5109159;28;20538;-70
2023/10/13 13:13:37;;;;;;;1999.90;999.90;;;25.10;45.30;;;;;;5110050;28;20415;-70
2023/10/13 13:16:03;;;;;;;1999.90;999.90;;;25.10;46.80;;;;;;5109106;28;20476;-70
2023/10/13 13:18:29;;;;;;;1999.90;999.90;;;25.00;44.60;;;;;;5108599;28;20174;-70
2023/10/13 13:20:55;;;;;;;1999.90;999.90;;;25.00;43.90;;;;;;5102447;28;20804;-70
2023/10/13 13:23:25;;;;;;;1999.90;999.90;;;24.90;45.50;;;;;;5083262;28;20182;-70
2023/10/13 13:25:52;;;;;;;1999.90;999.90;;;24.90;44.20;;;;;;5093628;28;20590;-70
2023/10/13 13:28:18;;;;;;;1999.90;999.90;;;24.90;44.00;;;;;;5105705;28;20382;-70
2023/10/13 13:30:43;;;;;;;1999.90;999.90;;;24.90;42.00;;;;;;5080412;28;20435;-70
2023/10/13 13:33:12;;;;;;;1999.90;999.90;;;24.90;41.20;;;;;;5074372;28;20957;-70
2023/10/13 13:35:39;;;;;;;1999.90;999.90;;;24.90;40.40;;;;;;5083121;28;20401;-72
2023/10/13 13:38:16;;;;;;;1999.90;999.90;;;24.90;40.50;;;;;;5083928;28;20512;-71
2023/10/13 13:40:48;;;;;;;1999.90;999.90;;;24.90;40.00;;;;;;5105182;28;20437;-73
2023/10/13 13:43:31;;;;;;;1999.90;999.90;;;24.90;40.00;;;;;;5093680;28;20411;-69
2023/10/13 13:46:00;;;;;;;1999.90;999.90;;;24.90;40.90;;;;;;5084589;28;20383;-69
2023/10/13 13:48:27;;;;;;;1999.90;999.90;;;24.80;41.50;;;;;;5087864;28;20395;-68
2023/10/13 13:51:04;;;;;;;1999.90;999.90;;;24.80;40.20;;;;;;5083599;28;20824;-70
2023/10/13 13:53:34;;;;;;;1999.90;999.90;;;24.80;41.60;;;;;;5095670;28;20412;-69
2023/10/13 13:56:03;;;;;;;1999.90;999.90;;;24.80;41.00;;;;;;5100447;28;20382;-69
2023/10/13 13:58:30;;;;;;;1999.90;999.90;;;24.70;41.60;;;;;;5099746;28;20490;-71
2023/10/13 14:01:12;;;;;;;1999.90;999.90;;;24.80;41.40;;;;;;5108253;28;20431;-71
2023/10/13 14:03:44;;;;;;;1999.90;999.90;;;24.60;41.70;;;;;;5108172;28;20478;-71
2023/10/13 14:06:17;;;;;;;1999.90;999.90;;;24.60;40.90;;;;;;5104832;28;20411;-71
2023/10/13 14:08:44;;;;;;;1999.90;999.90;;;24.60;42.20;;;;;;5087184;28;20387;-72
2023/10/13 14:11:13;;;;;;;1999.90;999.90;;;24.50;43.40;;;;;;5088363;28;20444;-69
2023/10/13 14:13:49;;;;;;;1999.90;999.90;;;24.50;40.80;;;;;;5087470;28;20428;-69
2023/10/13 14:16:18;;;;;;;1999.90;999.90;;;24.60;40.40;;;;;;5087818;28;20441;-69
2023/10/13 14:18:45;;;;;;;1999.90;999.90;;;24.50;41.00;;;;;;5095831;28;20835;-71
2023/10/13 14:21:16;;;;;;;1999.90;999.90;;;24.60;40.90;;;;;;5087452;28;20446;-71
2023/10/13 14:23:44;;;;;;;1999.90;999.90;;;24.60;41.10;;;;;;5103374;28;20420;-70
2023/10/13 14:26:12;;;;;;;1999.90;999.90;;;24.60;40.10;;;;;;5102415;28;20453;-71
2023/10/13 14:28:50;;;;;;;1999.90;999.90;;;24.60;41.00;;;;;;5097155;28;20440;-71
2023/10/13 14:31:16;;;;;;;1999.90;999.90;;;24.50;41.40;;;;;;5079548;28;20427;-72
2023/10/13 14:33:42;;;;;;;1999.90;999.90;;;24.50;40.60;;;;;;5090048;28;20395;-71
2023/10/13 14:36:10;;;;;;;1999.90;999.90;;;24.50;41.20;;;;;;5092871;28;20416;-71
2023/10/13 14:38:36;;;;;;;1999.90;999.90;;;24.50;42.10;;;;;;5093580;28;20196;-69
2023/10/13 14:41:01;;;;;;;1999.90;999.90;;;24.50;42.70;;;;;;5093615;28;20422;-72
2023/10/13 14:43:27;;;;;;;1999.90;999.90;;;24.40;42.90;;;;;;5095987;28;20175;-70
2023/10/13 14:45:55;;;;;;;1999.90;999.90;;;24.30;42.60;;;;;;5091660;28;20704;-69
2023/10/13 14:48:24;;;;;;;1999.90;999.90;;;24.10;43.90;;;;;;5098487;28;20639;-69
2023/10/13 14:50:49;;;;;;;1999.90;999.90;;;24.10;44.00;;;;;;5098169;28;20442;-70
2023/10/13 14:53:19;;;;;;;1999.90;999.90;;;24.10;45.30;;;;;;5093700;28;20415;-70
2023/10/13 14:55:45;;;;;;;1999.90;999.90;;;24.00;45.10;;;;;;5098822;28;20185;-69
2023/10/13 14:58:16;;;;;;;1999.90;999.90;;;24.00;44.50;;;;;;5104168;28;20505;-70
2023/10/13 15:00:45;;;;;;;1999.90;999.90;;;24.00;43.30;;;;;;5090901;28;20921;-70
2023/10/13 15:03:11;;;;;;;1999.90;999.90;;;24.10;44.20;;;;;;5099312;28;21157;-69
2023/10/13 15:05:43;;;;;;;1999.90;999.90;;;24.00;43.80;;;;;;5106986;28;20447;-70
2023/10/13 15:08:09;;;;;;;1999.90;999.90;;;24.00;44.00;;;;;;5097928;28;21004;-70
2023/10/13 15:10:36;;;;;;;1999.90;999.90;;;24.00;45.30;;;;;;5097912;28;20438;-70
2023/10/13 15:13:03;;;;;;;1999.90;999.90;;;24.00;43.90;;;;;;5094941;28;20452;-70
2023/10/13 15:15:32;;;;;;;1999.90;999.90;;;24.00;41.70;;;;;;5104078;28;20411;-70
2023/10/13 15:17:58;;;;;;;1999.90;999.90;;;24.10;42.60;;;;;;5109300;28;20419;-70
2023/10/13 15:20:23;;;;;;;1999.90;999.90;;;24.00;42.10;;;;;;5108858;28;20889;-70
2023/10/13 15:22:49;;;;;;;1999.90;999.90;;;24.00;41.80;;;;;;5101705;28;20486;-70
2023/10/13 15:25:21;;;;;;;1999.90;999.90;;;24.00;42.70;;;;;;5111445;28;20192;-70
2023/10/13 15:28:02;;;;;;;1999.90;999.90;;;24.00;42.00;;;;;;5110917;28;20648;-70
2023/10/13 15:30:42;;;;;;;1999.90;999.90;;;23.90;42.50;;;;;;5111430;28;20418;-70
2023/10/13 15:33:08;;;;;;;1999.90;999.90;;;23.90;43.50;;;;;;5111826;28;20774;-70
2023/10/13 15:35:33;;;;;;;1999.90;999.90;;;23.80;41.80;;;;;;5110817;28;20407;-70
2023/10/13 15:38:00;;;;;;;1999.90;999.90;;;23.80;42.60;;;;;;5105023;28;20190;-70
2023/10/13 15:40:27;;;;;;;1999.90;999.90;;;23.80;43.30;;;;;;5107890;28;20177;-70